sensor_id;sensor_type;location;lat;lon;timestamp;P1;durP1;ratioP1;P2;durP2;ratioP2
30289;SDS011;17105;55.652;37.710;2023-05-10T00:00:21;14.35;;;5.65;;
30289;SDS011;17105;55.652;37.710;2023-05-10T00:00:55;14.15;;;5.97;;
30289;SDS011;17105;55.652;37.710;2023-05-10T00:01:29;17.05;;;5.25;;
30289;SDS011;17105;55.652;37.710;2023-05-10T00:02:02;15.65;;;5.88;;
30289;SDS011;17105;55.652;37.710;2023-05-10T00:02:35;15.85;;;5.40;;
30289;SDS011;17105;55.652;37.710;2023-05-10T00:03:10;13.07;;;5.22;;
30289;SDS011;17105;55.652;37.710;2023-05-10T00:03:43;17.48;;;5.80;;
30289;SDS011;17105;55.652;37.710;2023-05-10T00:04:20;16.27;;;5.72;;
30289;SDS011;17105;55.652;37.710;2023-05-10T00:04:54;22.02;;;5.75;;
30289;SDS011;17105;55.652;37.710;2023-05-10T00:05:26;16.83;;;5.65;;
30289;SDS011;17105;55.652;37.710;2023-05-10T00:05:59;13.93;;;5.95;;
30289;SDS011;17105;55.652;37.710;2023-05-10T00:06:33;16.00;;;5.63;;
30289;SDS011;17105;55.652;37.710;2023-05-10T00:07:06;12.43;;;5.35;;
30289;SDS011;17105;55.652;37.710;2023-05-10T00:07:39;12.25;;;5.68;;
30289;SDS011;17105;55.652;37.710;2023-05-10T00:08:16;14.07;;;5.25;;
30289;SDS011;17105;55.652;37.710;2023-05-10T00:08:49;15.55;;;5.30;;
30289;SDS011;17105;55.652;37.710;2023-05-10T00:09:22;16.23;;;5.72;;
30289;SDS011;17105;55.652;37.710;2023-05-10T00:09:56;14.55;;;5.32;;
30289;SDS011;17105;55.652;37.710;2023-05-10T00:10:29;11.13;;;5.32;;
30289;SDS011;17105;55.652;37.710;2023-05-10T00:11:02;14.77;;;5.47;;
30289;SDS011;17105;55.652;37.710;2023-05-10T00:11:35;16.10;;;5.38;;
30289;SDS011;17105;55.652;37.710;2023-05-10T00:12:09;15.50;;;5.75;;
30289;SDS011;17105;55.652;37.710;2023-05-10T00:12:41;18.70;;;5.65;;
30289;SDS011;17105;55.652;37.710;2023-05-10T00:13:15;14.00;;;5.40;;
30289;SDS011;17105;55.652;37.710;2023-05-10T00:13:49;15.77;;;5.05;;
30289;SDS011;17105;55.652;37.710;2023-05-10T00:14:22;15.30;;;5.43;;
30289;SDS011;17105;55.652;37.710;2023-05-10T00:14:55;11.73;;;5.20;;
30289;SDS011;17105;55.652;37.710;2023-05-10T00:15:29;15.38;;;5.70;;
30289;SDS011;17105;55.652;37.710;2023-05-10T00:16:02;30.08;;;5.45;;
30289;SDS011;17105;55.652;37.710;2023-05-10T00:16:38;13.60;;;5.93;;
30289;SDS011;17105;55.652;37.710;2023-05-10T00:17:12;14.80;;;5.65;;
30289;SDS011;17105;55.652;37.710;2023-05-10T00:17:45;16.67;;;5.60;;
30289;SDS011;17105;55.652;37.710;2023-05-10T00:18:18;17.60;;;5.53;;
30289;SDS011;17105;55.652;37.710;2023-05-10T00:18:52;11.18;;;4.93;;
30289;SDS011;17105;55.652;37.710;2023-05-10T00:19:26;13.38;;;5.32;;
30289;SDS011;17105;55.652;37.710;2023-05-10T00:19:59;11.13;;;5.10;;
30289;SDS011;17105;55.652;37.710;2023-05-10T00:20:33;13.45;;;5.30;;
30289;SDS011;17105;55.652;37.710;2023-05-10T00:21:06;15.18;;;5.13;;
30289;SDS011;17105;55.652;37.710;2023-05-10T00:21:39;15.18;;;5.15;;
30289;SDS011;17105;55.652;37.710;2023-05-10T00:22:13;13.95;;;5.78;;
30289;SDS011;17105;55.652;37.710;2023-05-10T00:22:46;14.93;;;4.70;;
30289;SDS011;17105;55.652;37.710;2023-05-10T00:23:19;15.20;;;5.38;;
30289;SDS011;17105;55.652;37.710;2023-05-10T00:23:52;15.65;;;5.88;;
30289;SDS011;17105;55.652;37.710;2023-05-10T00:24:25;17.88;;;5.78;;
30289;SDS011;17105;55.652;37.710;2023-05-10T00:24:58;14.82;;;5.97;;
30289;SDS011;17105;55.652;37.710;2023-05-10T00:25:34;18.30;;;5.68;;
30289;SDS011;17105;55.652;37.710;2023-05-10T00:26:07;14.00;;;5.03;;
30289;SDS011;17105;55.652;37.710;2023-05-10T00:26:41;19.52;;;5.82;;
30289;SDS011;17105;55.652;37.710;2023-05-10T00:27:15;16.38;;;5.97;;
30289;SDS011;17105;55.652;37.710;2023-05-10T00:27:48;19.40;;;5.13;;
30289;SDS011;17105;55.652;37.710;2023-05-10T00:28:21;20.77;;;5.30;;
30289;SDS011;17105;55.652;37.710;2023-05-10T00:28:55;13.35;;;5.40;;
30289;SDS011;17105;55.652;37.710;2023-05-10T00:29:28;14.93;;;5.45;;
30289;SDS011;17105;55.652;37.710;2023-05-10T00:30:01;11.88;;;5.38;;
30289;SDS011;17105;55.652;37.710;2023-05-10T00:30:35;14.70;;;5.35;;
30289;SDS011;17105;55.652;37.710;2023-05-10T00:31:08;20.58;;;5.22;;
30289;SDS011;17105;55.652;37.710;2023-05-10T00:31:41;12.07;;;4.55;;
30289;SDS011;17105;55.652;37.710;2023-05-10T00:32:16;15.13;;;5.45;;
30289;SDS011;17105;55.652;37.710;2023-05-10T00:32:49;13.15;;;5.60;;
30289;SDS011;17105;55.652;37.710;2023-05-10T00:33:23;13.38;;;5.13;;
30289;SDS011;17105;55.652;37.710;2023-05-10T00:33:57;14.90;;;5.22;;
30289;SDS011;17105;55.652;37.710;2023-05-10T00:34:31;13.10;;;5.28;;
30289;SDS011;17105;55.652;37.710;2023-05-10T00:35:04;12.65;;;5.78;;
30289;SDS011;17105;55.652;37.710;2023-05-10T00:35:39;13.27;;;5.38;;
30289;SDS011;17105;55.652;37.710;2023-05-10T00:36:13;16.63;;;5.18;;
30289;SDS011;17105;55.652;37.710;2023-05-10T00:36:46;13.13;;;4.72;;
30289;SDS011;17105;55.652;37.710;2023-05-10T00:37:20;18.23;;;5.75;;
30289;SDS011;17105;55.652;37.710;2023-05-10T00:37:53;13.25;;;5.53;;
30289;SDS011;17105;55.652;37.710;2023-05-10T00:38:26;14.00;;;5.32;;
30289;SDS011;17105;55.652;37.710;2023-05-10T00:39:00;17.25;;;5.20;;
30289;SDS011;17105;55.652;37.710;2023-05-10T00:39:35;15.10;;;5.35;;
30289;SDS011;17105;55.652;37.710;2023-05-10T00:40:08;15.30;;;5.13;;
30289;SDS011;17105;55.652;37.710;2023-05-10T00:40:42;17.90;;;4.70;;
30289;SDS011;17105;55.652;37.710;2023-05-10T00:41:23;17.80;;;5.63;;
30289;SDS011;17105;55.652;37.710;2023-05-10T00:41:56;10.18;;;4.75;;
30289;SDS011;17105;55.652;37.710;2023-05-10T00:42:31;16.05;;;5.82;;
30289;SDS011;17105;55.652;37.710;2023-05-10T00:43:05;12.65;;;5.28;;
30289;SDS011;17105;55.652;37.710;2023-05-10T00:43:39;11.70;;;5.07;;
30289;SDS011;17105;55.652;37.710;2023-05-10T00:44:12;17.33;;;5.35;;
30289;SDS011;17105;55.652;37.710;2023-05-10T00:44:45;13.27;;;5.13;;
30289;SDS011;17105;55.652;37.710;2023-05-10T00:45:19;13.68;;;5.55;;
30289;SDS011;17105;55.652;37.710;2023-05-10T00:45:52;16.50;;;5.25;;
30289;SDS011;17105;55.652;37.710;2023-05-10T00:46:25;12.45;;;5.22;;
30289;SDS011;17105;55.652;37.710;2023-05-10T00:47:00;12.70;;;5.00;;
30289;SDS011;17105;55.652;37.710;2023-05-10T00:47:32;17.67;;;5.88;;
30289;SDS011;17105;55.652;37.710;2023-05-10T00:48:06;14.93;;;5.63;;
30289;SDS011;17105;55.652;37.710;2023-05-10T00:48:43;14.18;;;5.60;;
30289;SDS011;17105;55.652;37.710;2023-05-10T00:49:20;15.27;;;5.55;;
30289;SDS011;17105;55.652;37.710;2023-05-10T00:49:58;13.32;;;5.40;;
30289;SDS011;17105;55.652;37.710;2023-05-10T00:50:33;14.32;;;5.70;;
30289;SDS011;17105;55.652;37.710;2023-05-10T00:51:06;11.88;;;5.10;;
30289;SDS011;17105;55.652;37.710;2023-05-10T00:51:39;20.45;;;4.85;;
30289;SDS011;17105;55.652;37.710;2023-05-10T00:52:14;18.17;;;5.53;;
30289;SDS011;17105;55.652;37.710;2023-05-10T00:52:47;13.35;;;4.68;;
30289;SDS011;17105;55.652;37.710;2023-05-10T00:53:21;15.52;;;5.72;;
30289;SDS011;17105;55.652;37.710;2023-05-10T00:53:55;16.40;;;5.30;;
30289;SDS011;17105;55.652;37.710;2023-05-10T00:54:28;12.30;;;5.30;;
30289;SDS011;17105;55.652;37.710;2023-05-10T00:55:01;24.60;;;5.40;;
30289;SDS011;17105;55.652;37.710;2023-05-10T00:55:36;12.30;;;4.93;;
30289;SDS011;17105;55.652;37.710;2023-05-10T00:56:09;18.95;;;4.85;;
30289;SDS011;17105;55.652;37.710;2023-05-10T00:56:42;15.73;;;5.78;;
30289;SDS011;17105;55.652;37.710;2023-05-10T00:57:20;14.30;;;5.40;;
30289;SDS011;17105;55.652;37.710;2023-05-10T00:57:53;12.10;;;5.15;;
30289;SDS011;17105;55.652;37.710;2023-05-10T00:58:27;18.40;;;5.65;;
30289;SDS011;17105;55.652;37.710;2023-05-10T00:59:02;10.65;;;4.95;;
30289;SDS011;17105;55.652;37.710;2023-05-10T00:59:35;11.02;;;5.45;;
30289;SDS011;17105;55.652;37.710;2023-05-10T01:00:08;14.55;;;5.25;;
30289;SDS011;17105;55.652;37.710;2023-05-10T01:00:44;12.30;;;4.82;;
30289;SDS011;17105;55.652;37.710;2023-05-10T01:01:19;11.02;;;4.70;;
30289;SDS011;17105;55.652;37.710;2023-05-10T01:01:52;12.38;;;5.65;;
30289;SDS011;17105;55.652;37.710;2023-05-10T01:02:26;11.80;;;5.38;;
30289;SDS011;17105;55.652;37.710;2023-05-10T01:03:01;12.73;;;5.28;;
30289;SDS011;17105;55.652;37.710;2023-05-10T01:03:34;18.27;;;5.05;;
30289;SDS011;17105;55.652;37.710;2023-05-10T01:04:08;11.85;;;4.95;;
30289;SDS011;17105;55.652;37.710;2023-05-10T01:04:41;11.93;;;4.45;;
30289;SDS011;17105;55.652;37.710;2023-05-10T01:05:16;12.43;;;4.45;;
30289;SDS011;17105;55.652;37.710;2023-05-10T01:05:51;14.98;;;6.00;;
30289;SDS011;17105;55.652;37.710;2023-05-10T01:06:24;10.80;;;5.10;;
30289;SDS011;17105;55.652;37.710;2023-05-10T01:06:57;14.77;;;5.05;;
30289;SDS011;17105;55.652;37.710;2023-05-10T01:07:30;10.82;;;4.80;;
30289;SDS011;17105;55.652;37.710;2023-05-10T01:08:04;13.73;;;4.97;;
30289;SDS011;17105;55.652;37.710;2023-05-10T01:08:38;11.35;;;5.15;;
30289;SDS011;17105;55.652;37.710;2023-05-10T01:09:11;12.52;;;5.07;;
30289;SDS011;17105;55.652;37.710;2023-05-10T01:09:45;12.02;;;5.35;;
30289;SDS011;17105;55.652;37.710;2023-05-10T01:10:18;13.70;;;4.97;;
30289;SDS011;17105;55.652;37.710;2023-05-10T01:10:51;13.65;;;5.10;;
30289;SDS011;17105;55.652;37.710;2023-05-10T01:11:25;13.85;;;5.15;;
30289;SDS011;17105;55.652;37.710;2023-05-10T01:11:59;12.63;;;5.25;;
30289;SDS011;17105;55.652;37.710;2023-05-10T01:12:33;12.52;;;5.07;;
30289;SDS011;17105;55.652;37.710;2023-05-10T01:13:09;10.65;;;5.05;;
30289;SDS011;17105;55.652;37.710;2023-05-10T01:13:43;11.82;;;5.10;;
30289;SDS011;17105;55.652;37.710;2023-05-10T01:14:19;13.75;;;4.82;;
30289;SDS011;17105;55.652;37.710;2023-05-10T01:14:53;14.52;;;5.10;;
30289;SDS011;17105;55.652;37.710;2023-05-10T01:15:27;13.80;;;4.72;;
30289;SDS011;17105;55.652;37.710;2023-05-10T01:16:00;14.40;;;5.05;;
30289;SDS011;17105;55.652;37.710;2023-05-10T01:16:36;16.27;;;5.25;;
30289;SDS011;17105;55.652;37.710;2023-05-10T01:17:09;16.50;;;5.18;;
30289;SDS011;17105;55.652;37.710;2023-05-10T01:17:44;15.23;;;5.15;;
30289;SDS011;17105;55.652;37.710;2023-05-10T01:18:20;15.93;;;5.32;;
30289;SDS011;17105;55.652;37.710;2023-05-10T01:18:54;16.00;;;5.22;;
30289;SDS011;17105;55.652;37.710;2023-05-10T01:19:28;11.98;;;4.97;;
30289;SDS011;17105;55.652;37.710;2023-05-10T01:20:02;16.52;;;4.93;;
30289;SDS011;17105;55.652;37.710;2023-05-10T01:20:39;14.52;;;4.88;;
30289;SDS011;17105;55.652;37.710;2023-05-10T01:21:16;12.57;;;4.75;;
30289;SDS011;17105;55.652;37.710;2023-05-10T01:21:53;13.82;;;4.72;;
30289;SDS011;17105;55.652;37.710;2023-05-10T01:22:34;16.75;;;5.20;;
30289;SDS011;17105;55.652;37.710;2023-05-10T01:23:21;14.80;;;5.07;;
30289;SDS011;17105;55.652;37.710;2023-05-10T01:24:09;11.70;;;5.15;;
30289;SDS011;17105;55.652;37.710;2023-05-10T01:25:58;11.50;;;5.10;;
30289;SDS011;17105;55.652;37.710;2023-05-10T01:26:49;12.90;;;5.22;;
30289;SDS011;17105;55.652;37.710;2023-05-10T01:28:34;16.17;;;5.07;;
30289;SDS011;17105;55.652;37.710;2023-05-10T01:29:14;10.88;;;4.45;;
30289;SDS011;17105;55.652;37.710;2023-05-10T01:31:59;13.25;;;4.63;;
30289;SDS011;17105;55.652;37.710;2023-05-10T01:32:36;14.60;;;4.47;;
30289;SDS011;17105;55.652;37.710;2023-05-10T01:33:13;10.40;;;4.68;;
30289;SDS011;17105;55.652;37.710;2023-05-10T01:33:49;14.93;;;4.80;;
30289;SDS011;17105;55.652;37.710;2023-05-10T01:34:27;15.82;;;5.30;;
30289;SDS011;17105;55.652;37.710;2023-05-10T01:35:04;11.63;;;4.80;;
30289;SDS011;17105;55.652;37.710;2023-05-10T01:35:39;13.02;;;5.63;;
30289;SDS011;17105;55.652;37.710;2023-05-10T01:36:16;15.35;;;5.10;;
30289;SDS011;17105;55.652;37.710;2023-05-10T01:36:58;12.00;;;4.95;;
30289;SDS011;17105;55.652;37.710;2023-05-10T01:37:37;10.98;;;4.43;;
30289;SDS011;17105;55.652;37.710;2023-05-10T01:38:49;13.75;;;4.30;;
30289;SDS011;17105;55.652;37.710;2023-05-10T01:39:24;13.15;;;4.43;;
30289;SDS011;17105;55.652;37.710;2023-05-10T01:40:00;13.88;;;4.57;;
30289;SDS011;17105;55.652;37.710;2023-05-10T01:40:35;15.13;;;4.97;;
30289;SDS011;17105;55.652;37.710;2023-05-10T01:41:12;11.88;;;4.72;;
30289;SDS011;17105;55.652;37.710;2023-05-10T01:41:47;9.52;;;4.78;;
30289;SDS011;17105;55.652;37.710;2023-05-10T01:42:23;13.95;;;4.97;;
30289;SDS011;17105;55.652;37.710;2023-05-10T01:43:00;13.88;;;4.57;;
30289;SDS011;17105;55.652;37.710;2023-05-10T01:43:36;14.70;;;4.93;;
30289;SDS011;17105;55.652;37.710;2023-05-10T01:44:11;12.55;;;5.03;;
30289;SDS011;17105;55.652;37.710;2023-05-10T01:44:48;11.85;;;4.55;;
30289;SDS011;17105;55.652;37.710;2023-05-10T01:45:24;10.63;;;4.63;;
30289;SDS011;17105;55.652;37.710;2023-05-10T01:46:01;12.25;;;5.05;;
30289;SDS011;17105;55.652;37.710;2023-05-10T01:46:42;18.13;;;4.57;;
30289;SDS011;17105;55.652;37.710;2023-05-10T01:47:17;14.25;;;5.15;;
30289;SDS011;17105;55.652;37.710;2023-05-10T01:47:54;12.05;;;4.63;;
30289;SDS011;17105;55.652;37.710;2023-05-10T01:48:31;12.65;;;4.43;;
30289;SDS011;17105;55.652;37.710;2023-05-10T01:49:07;14.10;;;5.38;;
30289;SDS011;17105;55.652;37.710;2023-05-10T01:49:42;14.85;;;4.88;;
30289;SDS011;17105;55.652;37.710;2023-05-10T01:50:18;13.50;;;4.97;;
30289;SDS011;17105;55.652;37.710;2023-05-10T01:50:53;12.65;;;5.70;;
30289;SDS011;17105;55.652;37.710;2023-05-10T01:51:28;19.92;;;4.97;;
30289;SDS011;17105;55.652;37.710;2023-05-10T01:52:04;12.63;;;5.00;;
30289;SDS011;17105;55.652;37.710;2023-05-10T01:52:41;13.20;;;4.82;;
30289;SDS011;17105;55.652;37.710;2023-05-10T01:53:17;14.35;;;4.93;;
30289;SDS011;17105;55.652;37.710;2023-05-10T01:53:54;14.18;;;4.88;;
30289;SDS011;17105;55.652;37.710;2023-05-10T01:54:30;14.70;;;5.05;;
30289;SDS011;17105;55.652;37.710;2023-05-10T01:55:06;18.52;;;5.10;;
30289;SDS011;17105;55.652;37.710;2023-05-10T01:55:41;17.50;;;5.78;;
30289;SDS011;17105;55.652;37.710;2023-05-10T01:56:15;10.60;;;4.70;;
30289;SDS011;17105;55.652;37.710;2023-05-10T01:56:51;12.55;;;4.93;;
30289;SDS011;17105;55.652;37.710;2023-05-10T01:57:26;22.75;;;5.40;;
30289;SDS011;17105;55.652;37.710;2023-05-10T01:58:02;13.77;;;4.82;;
30289;SDS011;17105;55.652;37.710;2023-05-10T01:58:36;15.75;;;4.60;;
30289;SDS011;17105;55.652;37.710;2023-05-10T01:59:11;13.05;;;5.03;;
30289;SDS011;17105;55.652;37.710;2023-05-10T01:59:45;17.25;;;5.75;;
30289;SDS011;17105;55.652;37.710;2023-05-10T02:00:20;12.13;;;5.50;;
30289;SDS011;17105;55.652;37.710;2023-05-10T02:00:55;14.93;;;5.45;;
30289;SDS011;17105;55.652;37.710;2023-05-10T02:01:30;15.95;;;5.47;;
30289;SDS011;17105;55.652;37.710;2023-05-10T02:02:04;18.42;;;5.65;;
30289;SDS011;17105;55.652;37.710;2023-05-10T02:02:46;18.67;;;6.55;;
30289;SDS011;17105;55.652;37.710;2023-05-10T02:03:20;22.85;;;5.90;;
30289;SDS011;17105;55.652;37.710;2023-05-10T02:03:54;19.83;;;5.72;;
30289;SDS011;17105;55.652;37.710;2023-05-10T02:04:29;12.50;;;4.70;;
30289;SDS011;17105;55.652;37.710;2023-05-10T02:05:02;14.32;;;4.53;;
30289;SDS011;17105;55.652;37.710;2023-05-10T02:05:36;18.63;;;5.20;;
30289;SDS011;17105;55.652;37.710;2023-05-10T02:06:09;12.52;;;4.72;;
30289;SDS011;17105;55.652;37.710;2023-05-10T02:06:44;12.52;;;5.38;;
30289;SDS011;17105;55.652;37.710;2023-05-10T02:07:18;15.02;;;4.75;;
30289;SDS011;17105;55.652;37.710;2023-05-10T02:07:51;16.13;;;4.80;;
30289;SDS011;17105;55.652;37.710;2023-05-10T02:08:26;11.93;;;4.72;;
30289;SDS011;17105;55.652;37.710;2023-05-10T02:09:01;18.20;;;4.97;;
30289;SDS011;17105;55.652;37.710;2023-05-10T02:09:34;17.48;;;5.47;;
30289;SDS011;17105;55.652;37.710;2023-05-10T02:10:09;18.50;;;5.32;;
30289;SDS011;17105;55.652;37.710;2023-05-10T02:10:43;15.13;;;4.97;;
30289;SDS011;17105;55.652;37.710;2023-05-10T02:11:17;16.00;;;4.70;;
30289;SDS011;17105;55.652;37.710;2023-05-10T02:11:52;27.58;;;5.45;;
30289;SDS011;17105;55.652;37.710;2023-05-10T02:12:26;13.23;;;4.95;;
30289;SDS011;17105;55.652;37.710;2023-05-10T02:12:59;28.27;;;5.30;;
30289;SDS011;17105;55.652;37.710;2023-05-10T02:13:34;16.35;;;4.90;;
30289;SDS011;17105;55.652;37.710;2023-05-10T02:14:09;17.58;;;5.10;;
30289;SDS011;17105;55.652;37.710;2023-05-10T02:14:42;12.15;;;4.60;;
30289;SDS011;17105;55.652;37.710;2023-05-10T02:15:17;16.40;;;5.13;;
30289;SDS011;17105;55.652;37.710;2023-05-10T02:15:52;16.42;;;4.50;;
30289;SDS011;17105;55.652;37.710;2023-05-10T02:16:26;19.20;;;4.57;;
30289;SDS011;17105;55.652;37.710;2023-05-10T02:16:59;16.42;;;4.97;;
30289;SDS011;17105;55.652;37.710;2023-05-10T02:17:34;22.77;;;5.68;;
30289;SDS011;17105;55.652;37.710;2023-05-10T02:18:10;15.48;;;4.95;;
30289;SDS011;17105;55.652;37.710;2023-05-10T02:18:43;19.25;;;4.93;;
30289;SDS011;17105;55.652;37.710;2023-05-10T02:19:19;14.13;;;4.53;;
30289;SDS011;17105;55.652;37.710;2023-05-10T02:20:13;18.23;;;5.38;;
30289;SDS011;17105;55.652;37.710;2023-05-10T02:20:49;21.40;;;5.45;;
30289;SDS011;17105;55.652;37.710;2023-05-10T02:21:23;24.23;;;5.15;;
30289;SDS011;17105;55.652;37.710;2023-05-10T02:21:57;19.65;;;5.35;;
30289;SDS011;17105;55.652;37.710;2023-05-10T02:22:31;23.80;;;5.30;;
30289;SDS011;17105;55.652;37.710;2023-05-10T02:23:05;16.70;;;5.45;;
30289;SDS011;17105;55.652;37.710;2023-05-10T02:23:40;22.17;;;5.80;;
30289;SDS011;17105;55.652;37.710;2023-05-10T02:24:13;15.02;;;5.13;;
30289;SDS011;17105;55.652;37.710;2023-05-10T02:24:48;17.95;;;5.15;;
30289;SDS011;17105;55.652;37.710;2023-05-10T02:25:22;18.27;;;5.05;;
30289;SDS011;17105;55.652;37.710;2023-05-10T02:25:56;15.35;;;4.93;;
30289;SDS011;17105;55.652;37.710;2023-05-10T02:26:31;18.15;;;5.45;;
30289;SDS011;17105;55.652;37.710;2023-05-10T02:27:04;21.00;;;4.80;;
30289;SDS011;17105;55.652;37.710;2023-05-10T02:27:37;17.63;;;5.28;;
30289;SDS011;17105;55.652;37.710;2023-05-10T02:28:12;16.15;;;5.03;;
30289;SDS011;17105;55.652;37.710;2023-05-10T02:28:45;27.67;;;5.38;;
30289;SDS011;17105;55.652;37.710;2023-05-10T02:29:20;22.55;;;5.70;;
30289;SDS011;17105;55.652;37.710;2023-05-10T02:29:54;21.65;;;5.05;;
30289;SDS011;17105;55.652;37.710;2023-05-10T02:30:28;14.30;;;4.75;;
30289;SDS011;17105;55.652;37.710;2023-05-10T02:31:03;21.55;;;5.07;;
30289;SDS011;17105;55.652;37.710;2023-05-10T02:31:37;19.77;;;4.93;;
30289;SDS011;17105;55.652;37.710;2023-05-10T02:32:10;14.25;;;5.05;;
30289;SDS011;17105;55.652;37.710;2023-05-10T02:32:44;15.52;;;4.70;;
30289;SDS011;17105;55.652;37.710;2023-05-10T02:33:20;14.85;;;4.80;;
30289;SDS011;17105;55.652;37.710;2023-05-10T02:33:54;10.65;;;4.22;;
30289;SDS011;17105;55.652;37.710;2023-05-10T02:34:28;20.40;;;4.55;;
30289;SDS011;17105;55.652;37.710;2023-05-10T02:35:02;12.38;;;4.28;;
30289;SDS011;17105;55.652;37.710;2023-05-10T02:35:36;20.00;;;5.05;;
30289;SDS011;17105;55.652;37.710;2023-05-10T02:36:12;15.70;;;4.43;;
30289;SDS011;17105;55.652;37.710;2023-05-10T02:36:47;15.75;;;5.00;;
30289;SDS011;17105;55.652;37.710;2023-05-10T02:37:20;12.82;;;4.85;;
30289;SDS011;17105;55.652;37.710;2023-05-10T02:37:54;17.58;;;5.20;;
30289;SDS011;17105;55.652;37.710;2023-05-10T02:38:27;20.92;;;5.03;;
30289;SDS011;17105;55.652;37.710;2023-05-10T02:39:02;18.25;;;4.70;;
30289;SDS011;17105;55.652;37.710;2023-05-10T02:39:36;22.55;;;5.22;;
30289;SDS011;17105;55.652;37.710;2023-05-10T02:40:10;17.60;;;4.68;;
30289;SDS011;17105;55.652;37.710;2023-05-10T02:40:44;15.68;;;5.40;;
30289;SDS011;17105;55.652;37.710;2023-05-10T02:41:19;21.98;;;5.30;;
30289;SDS011;17105;55.652;37.710;2023-05-10T02:41:53;15.75;;;4.32;;
30289;SDS011;17105;55.652;37.710;2023-05-10T02:42:27;24.15;;;5.00;;
30289;SDS011;17105;55.652;37.710;2023-05-10T02:43:01;20.20;;;5.10;;
30289;SDS011;17105;55.652;37.710;2023-05-10T02:43:35;29.48;;;5.57;;
30289;SDS011;17105;55.652;37.710;2023-05-10T02:44:09;23.83;;;5.32;;
30289;SDS011;17105;55.652;37.710;2023-05-10T02:44:44;19.17;;;5.30;;
30289;SDS011;17105;55.652;37.710;2023-05-10T02:45:20;16.77;;;4.65;;
30289;SDS011;17105;55.652;37.710;2023-05-10T02:45:54;17.73;;;4.60;;
30289;SDS011;17105;55.652;37.710;2023-05-10T02:46:27;17.73;;;4.50;;
30289;SDS011;17105;55.652;37.710;2023-05-10T02:47:00;18.73;;;4.72;;
30289;SDS011;17105;55.652;37.710;2023-05-10T02:47:35;19.15;;;4.97;;
30289;SDS011;17105;55.652;37.710;2023-05-10T02:48:08;21.38;;;5.30;;
30289;SDS011;17105;55.652;37.710;2023-05-10T02:48:42;17.23;;;5.13;;
30289;SDS011;17105;55.652;37.710;2023-05-10T02:49:18;19.15;;;5.07;;
30289;SDS011;17105;55.652;37.710;2023-05-10T02:49:52;22.00;;;5.40;;
30289;SDS011;17105;55.652;37.710;2023-05-10T02:50:25;13.77;;;4.93;;
30289;SDS011;17105;55.652;37.710;2023-05-10T02:51:00;11.85;;;4.30;;
30289;SDS011;17105;55.652;37.710;2023-05-10T02:51:37;11.45;;;4.50;;
30289;SDS011;17105;55.652;37.710;2023-05-10T02:52:13;21.35;;;5.15;;
30289;SDS011;17105;55.652;37.710;2023-05-10T02:52:51;19.95;;;5.03;;
30289;SDS011;17105;55.652;37.710;2023-05-10T02:53:28;13.90;;;4.22;;
30289;SDS011;17105;55.652;37.710;2023-05-10T02:54:06;18.05;;;4.97;;
30289;SDS011;17105;55.652;37.710;2023-05-10T02:54:42;13.90;;;4.63;;
30289;SDS011;17105;55.652;37.710;2023-05-10T02:55:16;19.35;;;4.47;;
30289;SDS011;17105;55.652;37.710;2023-05-10T02:55:52;12.32;;;4.15;;
30289;SDS011;17105;55.652;37.710;2023-05-10T02:56:28;16.75;;;4.68;;
30289;SDS011;17105;55.652;37.710;2023-05-10T02:57:04;13.68;;;5.15;;
30289;SDS011;17105;55.652;37.710;2023-05-10T02:57:40;19.20;;;5.28;;
30289;SDS011;17105;55.652;37.710;2023-05-10T02:58:14;24.30;;;5.05;;
30289;SDS011;17105;55.652;37.710;2023-05-10T02:58:50;24.10;;;4.93;;
30289;SDS011;17105;55.652;37.710;2023-05-10T02:59:23;21.50;;;5.00;;
30289;SDS011;17105;55.652;37.710;2023-05-10T02:59:57;25.80;;;5.38;;
30289;SDS011;17105;55.652;37.710;2023-05-10T03:00:32;16.20;;;4.85;;
30289;SDS011;17105;55.652;37.710;2023-05-10T03:01:05;37.03;;;5.15;;
30289;SDS011;17105;55.652;37.710;2023-05-10T03:01:39;23.33;;;4.85;;
30289;SDS011;17105;55.652;37.710;2023-05-10T03:02:12;23.40;;;5.68;;
30289;SDS011;17105;55.652;37.710;2023-05-10T03:02:46;18.60;;;4.60;;
30289;SDS011;17105;55.652;37.710;2023-05-10T03:03:20;18.65;;;5.07;;
30289;SDS011;17105;55.652;37.710;2023-05-10T03:03:56;21.98;;;5.63;;
30289;SDS011;17105;55.652;37.710;2023-05-10T03:04:29;20.67;;;4.90;;
30289;SDS011;17105;55.652;37.710;2023-05-10T03:05:03;127.68;;;67.55;;
30289;SDS011;17105;55.652;37.710;2023-05-10T03:05:36;101.30;;;45.20;;
30289;SDS011;17105;55.652;37.710;2023-05-10T03:06:10;149.43;;;51.20;;
30289;SDS011;17105;55.652;37.710;2023-05-10T03:06:44;56.50;;;15.10;;
30289;SDS011;17105;55.652;37.710;2023-05-10T03:07:17;18.08;;;5.80;;
30289;SDS011;17105;55.652;37.710;2023-05-10T03:07:53;52.28;;;18.00;;
30289;SDS011;17105;55.652;37.710;2023-05-10T03:08:27;61.58;;;21.52;;
30289;SDS011;17105;55.652;37.710;2023-05-10T03:09:01;23.88;;;7.03;;
30289;SDS011;17105;55.652;37.710;2023-05-10T03:09:35;21.17;;;5.35;;
30289;SDS011;17105;55.652;37.710;2023-05-10T03:10:09;14.63;;;4.78;;
30289;SDS011;17105;55.652;37.710;2023-05-10T03:10:47;21.48;;;4.80;;
30289;SDS011;17105;55.652;37.710;2023-05-10T03:11:26;18.20;;;5.18;;
30289;SDS011;17105;55.652;37.710;2023-05-10T03:12:07;15.25;;;5.30;;
30289;SDS011;17105;55.652;37.710;2023-05-10T03:12:47;16.35;;;5.47;;
30289;SDS011;17105;55.652;37.710;2023-05-10T03:13:25;15.80;;;4.82;;
30289;SDS011;17105;55.652;37.710;2023-05-10T03:14:06;20.55;;;5.07;;
30289;SDS011;17105;55.652;37.710;2023-05-10T03:14:43;18.38;;;4.75;;
30289;SDS011;17105;55.652;37.710;2023-05-10T03:15:19;19.00;;;4.68;;
30289;SDS011;17105;55.652;37.710;2023-05-10T03:15:57;18.60;;;4.82;;
30289;SDS011;17105;55.652;37.710;2023-05-10T03:16:34;26.58;;;5.10;;
30289;SDS011;17105;55.652;37.710;2023-05-10T03:17:10;18.67;;;4.80;;
30289;SDS011;17105;55.652;37.710;2023-05-10T03:17:46;12.88;;;4.85;;
30289;SDS011;17105;55.652;37.710;2023-05-10T03:18:21;15.68;;;5.10;;
30289;SDS011;17105;55.652;37.710;2023-05-10T03:18:56;13.55;;;4.90;;
30289;SDS011;17105;55.652;37.710;2023-05-10T03:19:34;15.68;;;4.47;;
30289;SDS011;17105;55.652;37.710;2023-05-10T03:20:09;12.68;;;4.95;;
30289;SDS011;17105;55.652;37.710;2023-05-10T03:20:46;22.15;;;5.35;;
30289;SDS011;17105;55.652;37.710;2023-05-10T03:21:21;16.95;;;3.95;;
30289;SDS011;17105;55.652;37.710;2023-05-10T03:21:55;13.23;;;4.43;;
30289;SDS011;17105;55.652;37.710;2023-05-10T03:22:37;11.65;;;4.32;;
30289;SDS011;17105;55.652;37.710;2023-05-10T03:23:12;16.13;;;4.35;;
30289;SDS011;17105;55.652;37.710;2023-05-10T03:23:47;15.07;;;4.13;;
30289;SDS011;17105;55.652;37.710;2023-05-10T03:24:21;19.35;;;5.43;;
30289;SDS011;17105;55.652;37.710;2023-05-10T03:24:57;30.20;;;5.50;;
30289;SDS011;17105;55.652;37.710;2023-05-10T03:25:34;25.27;;;6.32;;
30289;SDS011;17105;55.652;37.710;2023-05-10T03:26:12;23.20;;;6.25;;
30289;SDS011;17105;55.652;37.710;2023-05-10T03:26:49;15.75;;;6.68;;
30289;SDS011;17105;55.652;37.710;2023-05-10T03:27:23;23.52;;;6.90;;
30289;SDS011;17105;55.652;37.710;2023-05-10T03:27:58;14.38;;;5.20;;
30289;SDS011;17105;55.652;37.710;2023-05-10T03:28:35;14.98;;;4.63;;
30289;SDS011;17105;55.652;37.710;2023-05-10T03:29:08;18.08;;;5.85;;